Latest Weather Observations for Narrandera Airport

IDN60801

Issued at 12:35 pm EST Tuesday 16 September 2014 (issued every 30 minutes, with the page automatically refreshed every 10 minutes)

About weather observations | Map of weather stations | Latest weather observations for NSW | Other Formats
Station Details ID: 074148 Name: NARRANDERA AIRPORT AWS Lat: -34.70 Lon: 146.51 Height: 145.0 m
Data from the previous 72 hours. | See also: Recent months for locations in New South Wales
Date/Time
EST
Temp
°C
App
Temp
°C
Dew
Point
Rel
Hum
%
Delta-T
°C
Wind Press
QNH
hPa
Press
MSL
hPa
Rain
since 9 am
mm
Dir
 
Spd
km/h
Gust
km/h
Spd
kts
Gust
kts
16/12:30pm 16.4 11.9 8.4 59 4.1 WNW 22 33 12 18 1010.6 1010.6 0.0
16/12:00pm 17.4 12.6 8.8 57 4.5 WNW 24 33 13 18 1010.7 1010.7 0.0
16/11:30am 16.5 10.9 8.7 60 4.0 WNW 28 37 15 20 1011.0 1011.0 0.0
16/11:00am 16.0 12.1 9.4 65 3.4 WNW 20 32 11 17 1010.9 1010.9 0.0
16/10:30am 15.4 11.8 9.7 69 3.0 WNW 19 28 10 15 1011.1 1011.1 0.0
16/10:00am 14.1 10.6 10.1 77 2.1 WNW 19 24 10 13 1011.2 1011.2 0.0
16/09:30am 14.6 10.3 9.4 71 2.7 WNW 22 32 12 17 1011.3 1011.3 0.0
16/09:00am 13.9 8.1 9.3 74 2.4 WNW 30 41 16 22 1011.3 1011.3 0.0
16/08:30am 13.7 9.4 9.4 75 2.2 W 22 33 12 18 1011.1 1011.1 0.0
16/08:00am 13.2 9.7 8.7 74 2.3 WNW 17 26 9 14 1010.6 1010.6 0.0
16/07:30am 12.3 8.4 7.2 71 2.5 NW 17 20 9 11 1010.3 1010.3 0.0
16/07:00am 11.7 7.7 6.8 72 2.4 NW 17 19 9 10 1010.0 1010.0 0.0
16/06:30am 11.4 7.3 6.3 71 2.4 NW 17 20 9 11 1009.6 1009.6 0.0
16/06:00am 11.2 7.1 6.1 71 2.4 NNW 17 19 9 10 1009.1 1009.1 0.0
16/05:30am 11.4 7.6 5.9 69 2.6 NNW 15 19 8 10 1008.9 1008.9 0.0
16/05:00am 11.0 7.2 6.0 71 2.4 NW 15 20 8 11 1008.5 1008.5 0.0
16/04:30am 10.1 6.6 5.5 73 2.1 NW 13 17 7 9 1008.1 1008.1 0.0
16/04:00am 9.5 5.1 4.9 73 2.1 NW 17 20 9 11 1007.9 1007.9 0.0
16/03:30am 9.1 5.4 4.7 74 2.0 NW 13 17 7 9 1007.6 1007.6 0.0
16/03:00am 9.1 5.6 3.7 69 2.4 NW 11 13 6 7 1007.5 1007.5 0.0
16/02:30am 10.4 6.2 3.7 63 3.0 NW 15 19 8 10 1007.6 1007.6 0.0
16/02:00am 12.0 7.5 4.2 59 3.6 WNW 17 20 9 11 1007.5 1007.5 0.0
16/01:30am 12.4 7.8 3.6 55 4.0 NW 17 20 9 11 1007.5 1007.5 0.0
16/01:00am 14.8 9.9 4.2 49 4.9 N 19 24 10 13 1007.5 1007.5 0.0
16/12:30am 14.3 9.9 4.9 53 4.4 NNE 17 22 9 12 1007.4 1007.4 0.0
16/12:00am 15.2 10.8 4.9 50 4.9 ENE 17 19 9 10 1007.3 1007.3 0.0
 
Date/Time
EST
Temp
°C
App
Temp
°C
Dew
Point
Rel
Hum
%
Delta-T
°C
Wind Press
QNH
hPa
Press
MSL
hPa
Rain
since 9 am
mm
Dir
 
Spd
km/h
Gust
km/h
Spd
kts
Gust
kts
15/11:30pm 16.6 11.6 4.6 45 5.7 NNE 20 26 11 14 1007.8 1007.8 0.0
15/11:00pm 17.5 12.5 4.8 43 6.1 NE 20 24 11 13 1008.0 1008.0 0.0
15/10:30pm 16.5 12.1 4.9 46 5.5 ENE 17 22 9 12 1008.3 1008.3 0.0
15/10:00pm 16.9 11.9 4.6 44 5.9 ENE 20 28 11 15 1008.4 1008.4 0.0
15/09:30pm 17.8 12.7 4.0 40 6.5 ENE 20 28 11 15 1008.7 1008.7 0.0
15/09:00pm 17.4 12.9 4.0 41 6.3 ENE 17 24 9 13 1008.9 1008.9 0.0
15/08:30pm 17.4 12.6 4.7 43 6.1 ENE 19 24 10 13 1009.2 1009.2 0.0
15/08:00pm 17.4 13.0 4.7 43 6.1 ENE 17 20 9 11 1009.3 1009.3 0.0
15/07:30pm 17.9 13.5 4.5 41 6.4 ENE 17 20 9 11 1009.5 1009.5 0.0
15/07:00pm 19.1 15.0 4.1 37 7.2 ENE 15 20 8 11 1009.7 1009.7 0.0
15/06:30pm 19.4 15.2 4.0 36 7.4 ENE 15 17 8 9 1009.6 1009.6 0.0
15/06:00pm 19.9 16.4 3.6 34 7.8 ENE 11 13 6 7 1009.8 1009.8 0.0
15/05:30pm 21.8 17.5 3.0 29 9.0 NE 15 19 8 10 1009.9 1009.9 0.0
15/05:00pm 22.6 17.2 2.7 27 9.5 N 20 30 11 16 1009.9 1009.9 0.0
15/04:30pm 22.9 18.2 2.9 27 9.6 NNE 17 22 9 12 1010.1 1010.1 0.0
15/04:00pm 23.2 17.7 2.1 25 10.0 N 20 30 11 16 1010.4 1010.4 0.0
15/03:30pm 23.5 18.1 2.4 25 10.1 NNE 20 26 11 14 1011.0 1011.0 0.0
15/03:00pm 23.6 18.7 1.9 24 10.3 NNE 17 26 9 14 1011.3 1011.3 0.0
15/02:30pm 24.1 18.2 1.7 23 10.6 N 22 33 12 18 1011.6 1011.6 0.0
15/02:00pm 24.2 18.8 2.4 24 10.5 N 20 32 11 17 1012.1 1012.1 0.0
15/01:30pm 24.4 18.4 1.3 22 10.9 N 22 32 12 17 1012.7 1012.6 0.0
15/01:00pm 24.6 19.3 2.1 23 10.8 NNE 19 26 10 14 1013.1 1013.1 0.0
15/12:30pm 24.3 19.2 3.0 25 10.4 NNE 19 28 10 15 1013.5 1013.5 0.0
15/12:00pm 23.6 18.3 3.0 26 10.0 N 20 26 11 14 1014.1 1014.1 0.0
15/11:30am 23.0 18.1 4.0 29 9.3 NNE 19 26 10 14 1014.7 1014.7 0.0
15/11:00am 22.5 18.2 5.4 33 8.6 NE 17 30 9 16 1015.4 1015.4 0.0
15/10:30am 21.1 16.4 5.1 35 7.9 ENE 19 24 10 13 1015.6 1015.6 0.0
15/10:00am 20.0 16.2 7.4 44 6.5 E 17 20 9 11 1016.0 1016.0 0.0
15/09:30am 18.4 14.7 6.3 45 6.0 E 15 20 8 11 1016.3 1016.3 0.0
15/09:00am 16.9 13.6 6.4 50 5.2 ENE 13 19 7 10 1016.5 1016.5 0.0
15/08:30am 15.3 12.0 6.6 56 4.3 ENE 13 15 7 8 1016.6 1016.6 0.0
15/08:00am 13.4 10.4 5.8 60 3.6 ENE 11 15 6 8 1016.7 1016.7 0.0
15/07:30am 12.2 10.0 6.3 67 2.8 E 7 13 4 7 1016.5 1016.5 0.0
15/07:00am 9.3 6.5 5.3 76 1.8 ESE 9 11 5 6 1016.5 1016.5 0.0
15/06:30am 7.8 5.4 4.2 78 1.6 SE 6 9 3 5 1016.4 1016.4 0.0
15/06:00am 7.9 5.2 3.9 76 1.7 SE 7 9 4 5 1016.4 1016.4 0.0
15/05:30am 9.8 6.5 4.8 71 2.3 ENE 11 17 6 9 1016.3 1016.3 0.0
15/05:00am 8.1 5.2 4.5 78 1.6 SE 9 11 5 6 1016.4 1016.4 0.0
15/04:30am 8.0 5.4 4.4 78 1.6 ESE 7 9 4 5 1016.6 1016.6 0.0
15/04:00am 8.0 5.0 4.2 77 1.7 ESE 9 11 5 6 1016.7 1016.7 0.0
15/03:30am 7.9 4.8 3.8 75 1.8 SE 9 11 5 6 1016.7 1016.7 0.0
15/03:00am 8.4 6.4 4.4 76 1.8 ESE 4 7 2 4 1016.7 1016.7 0.0
15/02:30am 8.4 5.8 4.2 75 1.8 ESE 7 9 4 5 1017.1 1017.1 0.0
15/02:00am 9.2 7.9 4.2 71 2.2 CALM 0 0 0 0 1017.3 1017.3 0.0
15/01:30am 9.5 7.5 4.5 71 2.2 SSE 4 9 2 5 1017.5 1017.5 0.0
15/01:00am 9.5 7.0 4.5 71 2.2 SE 7 7 4 4 1017.7 1017.7 0.0
15/12:30am 9.8 8.6 4.6 70 2.3 CALM 0 0 0 0 1018.0 1018.0 0.0
15/12:00am 10.3 9.2 4.9 69 2.5 CALM 0 2 0 1 1018.1 1018.1 0.0
 
Date/Time
EST
Temp
°C
App
Temp
°C
Dew
Point
Rel
Hum
%
Delta-T
°C
Wind Press
QNH
hPa
Press
MSL
hPa
Rain
since 9 am
mm
Dir
 
Spd
km/h
Gust
km/h
Spd
kts
Gust
kts
14/11:30pm 10.3 8.0 4.7 68 2.5 SSE 6 9 3 5 1018.2 1018.2 0.0
14/11:00pm 10.4 9.2 4.8 68 2.5 CALM 0 0 0 0 1018.4 1018.4 0.0
14/10:30pm 10.3 9.2 4.9 69 2.5 CALM 0 6 0 3 1018.6 1018.6 0.0
14/10:00pm 10.3 7.9 5.1 70 2.4 E 7 9 4 5 1018.7 1018.8 0.0
14/09:30pm 10.4 7.9 4.5 67 2.7 E 7 11 4 6 1018.6 1018.6 0.0
14/09:00pm 10.8 9.6 4.5 65 2.8 CALM 0 6 0 3 1018.9 1019.0 0.0
14/08:30pm 11.2 8.3 4.4 63 3.1 E 9 11 5 6 1018.9 1019.0 0.0
14/08:00pm 12.3 10.7 4.3 58 3.6 E 2 7 1 4 1019.1 1019.2 0.0
14/07:30pm 13.5 11.1 4.1 53 4.3 ESE 6 7 3 4 1018.9 1019.0 0.0
14/07:00pm 14.8 12.2 4.2 49 4.9 ESE 7 9 4 5 1018.7 1018.8 0.0
14/06:30pm 16.9 13.8 3.6 41 6.2 SSE 9 11 5 6 1018.5 1018.5 0.0
14/06:00pm 17.9 14.3 3.0 37 6.9 SE 11 17 6 9 1018.3 1018.3 0.0
14/05:30pm 19.4 16.8 3.2 34 7.6 S 6 7 3 4 1018.3 1018.3 0.0
14/05:00pm 20.5 18.5 2.3 30 8.5 S 2 11 1 6 1018.1 1018.1 0.0
14/04:30pm 21.9 18.9 2.1 27 9.3 WSW 7 17 4 9 1018.0 1018.0 0.0
14/04:00pm 21.3 17.5 1.6 27 9.1 S 11 17 6 9 1018.1 1018.1 0.0
14/03:30pm 22.1 18.0 2.2 27 9.4 SW 13 24 7 13 1018.3 1018.3 0.0
14/03:00pm 22.3 19.3 1.9 26 9.6 WSW 7 15 4 8 1018.4 1018.4 0.0
14/02:30pm 22.0 17.8 1.6 26 9.5 SW 13 20 7 11 1018.6 1018.6 0.0
14/02:00pm 22.1 18.1 2.8 28 9.2 WSW 13 20 7 11 1018.7 1018.8 0.0
14/01:30pm 20.9 15.7 2.2 29 8.8 SW 19 26 10 14 1019.2 1019.3 0.0
14/01:00pm 20.7 16.6 2.0 29 8.7 S 13 24 7 13 1019.4 1019.5 0.0
14/12:30pm 20.7 16.4 3.0 31 8.4 W 15 22 8 12 1019.9 1019.9 0.0
14/12:00pm 20.4 16.6 4.0 34 7.9 SW 13 26 7 14 1020.2 1020.2 0.0
14/11:30am 19.6 17.0 4.1 36 7.5 SSW 7 17 4 9 1020.7 1020.7 0.0
14/11:00am 19.2 16.6 4.2 37 7.2 W 7 15 4 8 1021.1 1021.1 0.0
14/10:30am 18.6 16.5 5.8 43 6.3 SE 6 11 3 6 1021.3 1021.3 0.0
14/10:00am 17.2 14.7 4.9 44 5.9 W 7 11 4 6 1021.7 1021.7 0.0
14/09:30am 16.4 15.5 6.2 51 5.0 CALM 0 6 0 3 1021.7 1021.7 0.0
14/09:00am 14.4 13.6 6.5 59 3.8 CALM 0 0 0 0 1021.9 1021.9 0.0
14/08:30am 11.3 10.4 6.0 70 2.5 CALM 0 0 0 0 1022.0 1022.0 0.0
14/08:00am 8.1 7.0 4.9 80 1.4 CALM 0 0 0 0 1022.1 1022.1 0.0
14/07:30am 5.0 3.6 3.5 90 0.6 CALM 0 0 0 0 1021.8 1021.8 0.0
14/07:00am 2.9 1.2 2.0 94 0.4 CALM 0 0 0 0 1021.6 1021.6 0.0
14/06:30am 1.4 -0.5 0.8 96 0.2 CALM 0 0 0 0 1021.5 1021.5 0.0
14/06:00am 1.4 -0.5 0.7 95 0.3 CALM 0 0 0 0 1021.6 1021.6 0.0
14/05:30am 1.5 -0.4 0.5 93 0.4 CALM 0 0 0 0 1021.5 1021.5 0.0
14/05:00am 1.7 -0.2 0.8 94 0.3 CALM 0 0 0 0 1021.4 1021.4 0.0
14/04:30am 2.3 0.6 1.6 95 0.3 CALM 0 0 0 0 1021.5 1021.5 0.0
14/04:00am 2.3 0.5 1.4 94 0.3 CALM 0 0 0 0 1021.5 1021.5 0.0
14/03:30am 2.3 0.5 1.0 91 0.5 CALM 0 0 0 0 1021.4 1021.4 0.0
14/03:00am 2.7 0.9 1.4 91 0.5 CALM 0 0 0 0 1021.6 1021.6 0.0
14/02:30am 2.7 0.9 1.4 91 0.5 CALM 0 0 0 0 1021.7 1021.7 0.0
14/02:00am 3.1 1.4 1.8 91 0.5 CALM 0 0 0 0 1021.8 1021.8 0.0
14/01:30am 3.5 1.9 2.2 91 0.5 CALM 0 0 0 0 1022.0 1022.0 0.0
14/01:00am 3.6 1.9 2.0 89 0.6 CALM 0 0 0 0 1022.4 1022.4 0.0
14/12:30am 4.8 3.3 3.0 88 0.7 CALM 0 0 0 0 1022.6 1022.6 0.0
14/12:00am 4.6 3.1 2.8 88 0.7 CALM 0 0 0 0 1022.4 1022.4 0.0
 
Date/Time
EST
Temp
°C
App
Temp
°C
Dew
Point
Rel
Hum
%
Delta-T
°C
Wind Press
QNH
hPa
Press
MSL
hPa
Rain
since 9 am
mm
Dir
 
Spd
km/h
Gust
km/h
Spd
kts
Gust
kts
13/11:30pm 4.8 3.4 3.3 90 0.6 CALM 0 0 0 0 1022.5 1022.5 0.0
13/11:00pm 5.1 3.6 3.0 86 0.9 CALM 0 0 0 0 1022.6 1022.6 0.0
13/10:30pm 5.5 4.0 2.8 83 1.1 CALM 0 0 0 0 1022.6 1022.6 0.0
13/10:00pm 6.1 4.7 3.3 82 1.2 CALM 0 0 0 0 1022.7 1022.7 0.0
13/09:30pm 7.0 5.6 3.8 80 1.4 CALM 0 0 0 0 1022.9 1022.9 0.0
13/09:00pm 7.3 5.9 3.5 77 1.6 CALM 0 0 0 0 1023.0 1023.0 0.0
13/08:30pm 8.4 7.2 4.4 76 1.8 CALM 0 0 0 0 1023.0 1023.0 0.0
13/08:00pm 9.2 7.9 4.0 70 2.3 CALM 0 0 0 0 1022.8 1022.8 0.0
13/07:30pm 10.1 8.8 4.0 66 2.7 CALM 0 0 0 0 1022.7 1022.7 0.0
13/07:00pm 11.6 10.3 4.1 60 3.4 CALM 0 0 0 0 1022.4 1022.4 0.0
13/06:30pm 14.3 13.0 4.3 51 4.6 CALM 0 0 0 0 1022.4 1022.4 0.0
13/06:00pm 16.9 15.6 3.9 42 6.1 CALM 0 0 0 0 1022.2 1022.2 0.0
13/05:30pm 19.4 18.0 3.6 35 7.5 CALM 0 0 0 0 1022.0 1022.0 0.0
13/05:00pm 19.2 16.3 2.6 33 7.7 NW 7 11 4 6 1021.9 1021.9 0.0
13/04:30pm 19.9 17.2 2.7 32 8.1 W 6 11 3 6 1021.9 1021.9 0.0
13/04:00pm 19.6 16.9 2.5 32 7.9 N 6 17 3 9 1022.0 1022.0 0.0
13/03:30pm 19.9 16.3 3.2 33 7.9 WNW 11 19 6 10 1022.2 1022.2 0.0
13/03:00pm 19.8 16.9 2.6 32 8.0 W 7 15 4 8 1022.4 1022.4 0.0
13/02:30pm 19.4 16.7 2.7 33 7.8 N 6 15 3 8 1022.6 1022.6 0.0
13/02:00pm 19.2 15.9 2.6 33 7.7 NW 9 19 5 10 1023.0 1023.0 0.0
13/01:30pm 19.4 16.4 4.0 36 7.4 NNE 9 19 5 10 1023.3 1023.3 0.0
13/01:00pm 18.4 15.6 3.1 36 7.1 WNW 7 15 4 8 1023.6 1023.6 0.0

Other Formats:

Comma delimited format used in spreadsheet applications
http://www.bom.gov.au/fwo/IDN60801/IDN60801.95706.axf

JavaScript Object Notation format (JSON) in row-major order
http://www.bom.gov.au/fwo/IDN60801/IDN60801.95706.json